createdAt,value
2023-01-30T00:03:49.650Z,34.00
2023-01-30T00:13:59.606Z,31.80
2023-01-30T00:19:04.204Z,31.95
2023-01-30T00:24:09.511Z,34.45
2023-01-30T00:29:15.353Z,29.75
2023-01-30T00:34:19.967Z,31.67
2023-01-30T00:39:24.608Z,34.30
2023-01-30T00:49:52.112Z,37.22
2023-01-30T01:00:02.432Z,39.57
2023-01-30T01:05:08.146Z,36.03
2023-01-30T01:10:16.324Z,36.47
2023-01-30T01:15:24.020Z,35.97
2023-01-30T01:20:28.748Z,41.53
2023-01-30T01:25:33.404Z,42.65
2023-01-30T01:30:39.520Z,39.35
2023-01-30T01:35:47.536Z,33.88
2023-01-30T01:41:06.896Z,38.45
2023-01-30T01:46:22.408Z,36.08
2023-01-30T01:51:31.577Z,35.80
2023-01-30T01:56:39.754Z,38.42
2023-01-30T02:01:45.749Z,46.95
2023-01-30T02:06:51.280Z,38.90
2023-01-30T02:17:05.105Z,36.80
2023-01-30T02:22:45.628Z,38.60
2023-01-30T02:28:26.632Z,36.90
2023-01-30T02:33:45.293Z,37.83
2023-01-30T02:39:03.226Z,42.25
2023-01-30T02:44:18.229Z,35.33
2023-01-30T02:49:30.600Z,37.83
2023-01-30T02:54:36.112Z,42.65
2023-01-30T02:59:46.706Z,44.50
2023-01-30T03:05:20.377Z,35.80
2023-01-30T03:10:35.874Z,34.72
2023-01-30T03:15:49.334Z,38.25
2023-01-30T03:20:55.098Z,29.10
2023-01-30T03:26:01.266Z,30.92
2023-01-30T03:31:06.353Z,30.75
2023-01-30T03:36:12.716Z,32.63
2023-01-30T03:41:17.771Z,28.05
2023-01-30T03:46:23.247Z,24.95
2023-01-30T03:51:29.070Z,30.83
2023-01-30T03:56:33.579Z,27.83
2023-01-30T04:01:38.481Z,31.60
2023-01-30T04:06:44.445Z,28.90
2023-01-30T04:11:48.919Z,28.58
2023-01-30T04:16:54.808Z,27.38
2023-01-30T04:22:39.123Z,32.42
2023-01-30T04:27:44.452Z,30.15
2023-01-30T04:32:53.017Z,32.15
2023-01-30T04:37:59.338Z,25.58
2023-01-30T04:43:05.283Z,30.77
2023-01-30T04:48:13.666Z,24.98
2023-01-30T04:53:21.237Z,26.88
2023-01-30T04:58:25.838Z,29.08
2023-01-30T05:03:30.601Z,29.17
2023-01-30T05:08:36.522Z,22.98
2023-01-30T05:13:40.765Z,28.10
2023-01-30T05:18:45.647Z,25.45
2023-01-30T05:23:52.518Z,21.25
2023-01-30T05:28:58.912Z,28.00
2023-01-30T05:34:03.178Z,26.33
2023-01-30T05:44:13.409Z,21.00
2023-01-30T05:49:18.643Z,25.25
2023-01-30T05:54:25.003Z,23.73
2023-01-30T05:59:29.492Z,23.67
2023-01-30T06:04:33.899Z,24.30
2023-01-30T06:14:43.804Z,26.40
2023-01-30T06:19:48.012Z,23.92
2023-01-30T06:29:57.836Z,22.02
2023-01-30T06:35:02.076Z,23.73
2023-01-30T06:40:09.315Z,22.02
2023-01-30T06:45:14.097Z,22.75
2023-01-30T06:50:21.470Z,23.17
2023-01-30T06:55:28.593Z,23.25
2023-01-30T07:00:34.324Z,25.35
2023-01-30T07:05:39.847Z,23.48
2023-01-30T07:10:46.228Z,20.58
2023-01-30T07:15:50.678Z,25.38
2023-01-30T07:20:55.128Z,24.55
2023-01-30T07:26:00.770Z,21.63
2023-01-30T07:31:05.262Z,22.33
2023-01-30T07:41:15.765Z,22.52
2023-01-30T07:46:20.219Z,21.42
2023-01-30T07:56:30.175Z,22.48
2023-01-30T08:01:34.891Z,22.27
2023-01-30T08:06:39.907Z,23.38
2023-01-30T08:11:45.935Z,20.77
2023-01-30T08:16:52.465Z,23.92
2023-01-30T08:21:56.994Z,24.35
2023-01-30T08:27:03.293Z,22.55
2023-01-30T08:32:08.242Z,23.52
2023-01-30T08:37:12.738Z,19.08
2023-01-30T08:42:18.535Z,20.73
2023-01-30T08:47:23.023Z,21.38
2023-01-30T08:57:33.809Z,19.97
2023-01-30T09:02:38.521Z,21.17
2023-01-30T09:07:43.061Z,23.83
2023-01-30T09:12:48.792Z,22.35
2023-01-30T09:17:53.861Z,24.08
2023-01-30T09:22:58.324Z,25.23
2023-01-30T09:28:04.167Z,22.83
2023-01-30T09:33:08.669Z,28.75
2023-01-30T09:38:12.884Z,26.58
2023-01-30T09:43:37.055Z,24.95
2023-01-30T09:48:50.975Z,27.75
2023-01-30T09:54:10.967Z,24.05
2023-01-30T09:59:26.482Z,26.17
2023-01-30T10:04:36.126Z,27.13
2023-01-30T10:09:52.748Z,28.77
2023-01-30T10:15:20.166Z,28.65
2023-01-30T10:20:39.612Z,27.85
2023-01-30T10:25:48.283Z,28.85
2023-01-30T10:31:01.884Z,32.63
2023-01-30T10:36:11.974Z,33.55
2023-01-30T10:41:27.925Z,29.75
2023-01-30T10:52:03.990Z,29.95
2023-01-30T10:57:20.635Z,31.58
2023-01-30T11:02:39.822Z,30.45
2023-01-30T11:07:47.278Z,29.88
2023-01-30T11:12:55.254Z,31.33
2023-01-30T11:19:05.279Z,30.48
2023-01-30T11:23:36.707Z,28.23
2023-01-30T11:28:45.186Z,30.33
2023-01-30T11:34:06.919Z,30.10
2023-01-30T11:39:24.365Z,30.05
2023-01-30T11:44:31.069Z,26.08
2023-01-30T11:49:45.162Z,33.72
2023-01-30T11:55:05.580Z,32.67
2023-01-30T12:00:18.544Z,37.22
2023-01-30T12:05:33.069Z,28.90
2023-01-30T12:10:43.450Z,25.33
2023-01-30T12:15:53.042Z,32.88
2023-01-30T12:21:02.505Z,31.88
2023-01-30T12:26:14.687Z,35.40
2023-01-30T12:31:25.734Z,34.88
2023-01-30T12:36:43.876Z,30.30
2023-01-30T12:42:07.600Z,32.30
2023-01-30T12:47:40.174Z,30.57
2023-01-30T12:53:15.160Z,33.15
2023-01-30T12:58:25.037Z,34.25
2023-01-30T13:03:42.232Z,28.40
2023-01-30T13:09:11.691Z,28.77
2023-01-30T13:14:28.120Z,25.08
2023-01-30T13:19:44.051Z,27.88
2023-01-30T13:25:02.067Z,25.50
2023-01-30T13:30:10.594Z,21.73
2023-01-30T13:35:20.978Z,17.20
2023-01-30T13:40:34.673Z,16.75
2023-01-30T13:45:45.086Z,19.98
2023-01-30T13:51:14.097Z,16.15
2023-01-30T13:56:41.323Z,23.30
2023-01-30T14:02:22.381Z,19.08
2023-01-30T14:07:31.178Z,20.35
2023-01-30T14:12:42.343Z,25.23
2023-01-30T14:18:05.335Z,23.80
2023-01-30T14:23:23.786Z,24.13
2023-01-30T14:28:51.174Z,28.30
2023-01-30T14:33:55.565Z,30.88
2023-01-30T14:45:05.076Z,30.27
2023-01-30T14:50:20.959Z,21.15
2023-01-30T14:55:29.583Z,21.58
2023-01-30T15:00:40.130Z,27.35
2023-01-30T15:05:46.859Z,27.35
2023-01-30T15:11:09.579Z,24.77
2023-01-30T15:16:41.958Z,22.95
2023-01-30T15:22:10.159Z,21.02
2023-01-30T15:27:22.040Z,14.57
2023-01-30T15:32:30.668Z,12.32
2023-01-30T15:37:38.216Z,11.70
2023-01-30T15:42:45.788Z,14.57
2023-01-30T15:48:25.350Z,10.15
2023-01-30T15:53:35.154Z,14.30
2023-01-30T15:58:43.527Z,17.35
2023-01-30T16:03:51.200Z,13.48
2023-01-30T16:09:01.845Z,13.45
2023-01-30T16:14:06.812Z,10.73
2023-01-30T16:19:22.890Z,15.07
2023-01-30T16:24:31.998Z,14.75
2023-01-30T16:29:50.754Z,14.55
2023-01-30T16:35:27.776Z,15.05
2023-01-30T16:40:45.100Z,19.52
2023-01-30T16:46:46.509Z,15.20
2023-01-30T16:52:02.141Z,19.17
2023-01-30T16:57:07.008Z,18.67
2023-01-30T17:02:27.040Z,22.27
2023-01-30T17:07:38.588Z,18.65
2023-01-30T17:12:49.681Z,20.33
2023-01-30T17:17:54.334Z,22.05
2023-01-30T17:28:09.881Z,26.67
2023-01-30T17:33:14.370Z,21.90
2023-01-30T17:38:20.190Z,28.63
2023-01-30T17:43:24.932Z,21.33
2023-01-30T17:53:35.684Z,25.83
2023-01-30T17:58:40.164Z,19.83
2023-01-30T18:03:45.011Z,18.65
2023-01-30T18:08:50.772Z,17.40
2023-01-30T18:13:55.222Z,21.33
2023-01-30T18:19:03.477Z,21.90
2023-01-30T18:24:10.492Z,19.90
2023-01-30T18:29:15.371Z,23.98
2023-01-30T18:39:25.984Z,21.43
2023-01-30T18:44:30.470Z,19.20
2023-01-30T18:49:35.037Z,21.13
2023-01-30T18:54:41.169Z,25.65
2023-01-30T18:59:45.572Z,18.98
2023-01-30T19:04:50.012Z,18.60
2023-01-30T19:09:56.466Z,23.88
2023-01-30T19:15:01.473Z,23.52
2023-01-30T19:20:11.067Z,20.15
2023-01-30T19:25:17.492Z,17.95
2023-01-30T19:30:22.194Z,16.42
2023-01-30T19:35:27.005Z,17.27
2023-01-30T19:45:37.457Z,15.60
2023-01-30T19:50:41.915Z,14.82
2023-01-30T19:55:52.831Z,15.00
2023-01-30T20:01:04.963Z,15.50
2023-01-30T20:06:13.110Z,14.00
2023-01-30T20:11:21.826Z,11.13
2023-01-30T20:16:29.869Z,11.80
2023-01-30T20:21:35.915Z,9.63
2023-01-30T20:26:42.201Z,10.48
2023-01-30T20:31:47.143Z,8.98
2023-01-30T20:36:51.985Z,10.88
2023-01-30T20:41:57.648Z,9.82
2023-01-30T20:47:03.473Z,9.88
2023-01-30T20:52:08.394Z,12.75
2023-01-30T20:57:14.364Z,6.80
2023-01-30T21:02:18.954Z,8.73
2023-01-30T21:07:23.612Z,9.98
2023-01-30T21:17:35.233Z,4.82
2023-01-30T21:22:40.231Z,8.25
2023-01-30T21:32:50.369Z,10.20
2023-01-30T21:38:12.488Z,9.00
2023-01-30T21:43:18.402Z,9.82
2023-01-30T21:48:23.126Z,6.70
2023-01-30T21:53:28.304Z,7.13
2023-01-30T21:58:34.617Z,8.23
2023-01-30T22:03:39.939Z,5.68
2023-01-30T22:08:44.832Z,4.07
2023-01-30T22:13:50.704Z,9.60
2023-01-30T22:18:57.657Z,7.10
2023-01-30T22:24:05.586Z,8.40
2023-01-30T22:29:11.448Z,6.15
2023-01-30T22:34:16.099Z,14.65
2023-01-30T22:44:26.973Z,6.30
2023-01-30T22:49:31.383Z,10.95
2023-01-30T22:59:41.511Z,4.90
2023-01-30T23:04:45.896Z,8.25
2023-01-30T23:09:50.317Z,7.60
2023-01-30T23:14:56.302Z,10.93
2023-01-30T23:20:00.759Z,12.30
2023-01-30T23:25:06.156Z,11.88
2023-01-30T23:30:13.617Z,7.53
2023-01-30T23:35:18.319Z,10.07
2023-01-30T23:40:22.956Z,9.63
2023-01-30T23:45:30.711Z,5.95
2023-01-30T23:50:36.771Z,5.80
2023-01-30T23:55:41.728Z,8.50
